Home   Weather   India   Lunawada   Past weeks
Flag for India

Past Weather in Lunawada, Gujarat, India — Yesterday and Last 2 Weeks

Currently: 86 °F. Clear. (Weather station: Ahmadabad Airport, India). See more current weather

Past Weather in Lunawada — Graph

°F

Lunawada Temperature Yesterday

Maximum temperature yesterday: 97 °F (at 4:30 pm)
Minimum temperature yesterday: 63 °F (at 5:00 am)
Average temperature yesterday: 78 °F

High & Low Weather Summary for the Past Weeks

 TemperatureHumidityPressure
High97 °F (Feb 24, 4:30 pm)94% (Feb 11, 5:30 am)30.07 "Hg (Feb 11, 5:30 am)
Low57 °F (Feb 11, 4:00 am)12% (Feb 19, 3:30 pm)29.80 "Hg (Feb 11, 4:00 pm)
Average75 °F44%29.90 "Hg
* Reported Feb 10 11:30 am — Feb 25 11:30 am, Lunawada. Weather by CustomWeather, © 2021

Note: Actual official high and low records may vary slightly from our data, if they occured in-between our weather recording intervals... More about our weather records

Lunawada Weather History for the Previous 24 Hours

Scroll right to see more
 ConditionsComfort  
Time TempWeatherWind HumidityBarometerVisibility
11:30 am
Thu, Feb 25
84 °FClear.6 mph43%29.95 "Hg3 mi
11:00 am81 °FClear.5 mph51%29.95 "Hg3 mi
10:30 am81 °FClear.5 mph51%29.95 "Hg3 mi
10:00 am79 °FHaze.7 mph58%29.95 "Hg2 mi
9:30 am75 °FHaze.7 mph65%29.95 "Hg2 mi
9:00 am73 °FHaze.3 mph65%29.95 "Hg2 mi
8:30 am72 °FHaze.6 mph65%29.92 "Hg2 mi
8:00 am70 °FHaze.3 mph69%29.92 "Hg2 mi
7:30 am68 °FHaze.3 mph69%29.89 "Hg2 mi
7:00 am68 °FHaze.7 mph69%29.89 "Hg2 mi
6:00 am70 °FClear.6 mph60%29.86 "Hg2 mi
4:30 am70 °FClear.No wind46%29.83 "Hg2 mi
4:00 am72 °FHaze.6 mph38%29.83 "Hg2 mi
3:30 am72 °FHaze.6 mph41%29.83 "Hg2 mi
3:00 am73 °FHaze.3 mph36%29.83 "Hg2 mi
2:30 am72 °FHaze.3 mph44%29.83 "Hg2 mi
2:00 am70 °FHaze.No wind60%29.83 "Hg2 mi
1:30 am70 °FHaze.2 mph69%29.83 "Hg2 mi
1:00 am72 °FHaze.No wind61%29.86 "Hg2 mi
12:30 am72 °FClear.No wind57%29.86 "Hg2 mi
11:30 pm
Wed, Feb 24
73 °FClear.No wind57%29.86 "Hg2 mi
11:00 pm75 °FClear.No wind50%29.86 "Hg2 mi
10:30 pm77 °FClear.No wind51%29.86 "Hg2 mi
10:00 pm77 °FClear.No wind47%29.86 "Hg2 mi
9:30 pm79 °FClear.No wind45%29.86 "Hg2 mi
9:00 pm79 °FClear.No wind42%29.86 "Hg2 mi
8:30 pm81 °FClear.No wind39%29.83 "Hg2 mi
8:00 pm82 °FClear.No wind35%29.83 "Hg2 mi
7:30 pm84 °FClear.No wind33%29.83 "Hg2 mi
7:00 pm88 °FClear.No wind27%29.80 "Hg2 mi
6:30 pm90 °FClear.5 mph26%29.80 "Hg2 mi
6:00 pm91 °FClear.6 mph24%29.80 "Hg3 mi
5:30 pm93 °FClear.8 mph24%29.80 "Hg4 mi
5:00 pm93 °FClear.13 mph24%29.80 "Hg4 mi
4:30 pm97 °FClear.7 mph20%29.80 "Hg4 mi
3:00 pm95 °FClear.5 mph22%29.83 "Hg4 mi
2:30 pm95 °FClear.6 mph23%29.83 "Hg4 mi
2:00 pm95 °FClear.8 mph23%29.83 "Hg4 mi
1:30 pm95 °FClear.8 mph22%29.83 "Hg4 mi
1:00 pm91 °FClear.3 mph26%29.86 "Hg3 mi
Weather by CustomWeather, © 2021

See weather overview